KHOU/HOU METAR and TAF weather

Enter ICAO airport designator
Station Type Date Time Source
KHOU METAR 2022/11/27 07:53 UTC NOAA

KHOU 270753Z 21005KT 10SM CLR 10/07 A2986 RMK AO2 SLP117 T01000067


Station Type Date Time Source
KHOU Decoded METAR 2022/11/27 07:53 UTC NOAA

HOUSTON HOBBY AIRPORT, TX, United States (KHOU) 29-38N 095-17W 36M
Nov 27, 2022 - 02:53 AM EST / 2022.11.27 0753 UTC
Wind: from the SSW (210 degrees) at 6 MPH (5 KT):0
Visibility: 10 mile(s):0
Sky conditions: clear
Temperature: 50.0 F (10.0 C)
Dew Point: 44.1 F (6.7 C)
Relative Humidity: 79%
Pressure (altimeter): 29.86 in. Hg (1011 hPa)
ob: KHOU 270753Z 21005KT 10SM CLR 10/07 A2986 RMK AO2 SLP117 T01000067
cycle: 8

Station Type Date Time Source
KHOU TAF 2022/11/27 06:22 UTC NOAA

TAF KHOU 270520Z 2706/2806 22006KT P6SM SKC
FM271000 24005KT P6SM FEW250 WS015/24035KT
FM271400 25007KT P6SM SKC
FM271900 25010KT P6SM FEW250
FM280400 33003KT P6SM SKC

Example: see airport list